Time;durP1;ratioP1;P1;durP2;ratioP2;P2;SDS_P1;SDS_P2;PMS_P1;PMS_P2;Temp;Humidity;BMP_temperature;BMP_pressure;BME280_temperature;BME280_humidity;BME280_pressure;Samples;Min_cycle;Max_cycle;Signal;HPM_P1;HPM_P2
2022/02/21 00:00:40;;;;;;;6.55;1.70;;;7.30;99.90;;;;;;5073473;28;20113;-54
2022/02/21 00:03:06;;;;;;;13.63;2.17;;;7.40;99.90;;;;;;5073874;28;20035;-55
2022/02/21 00:05:34;;;;;;;10.40;2.45;;;7.40;99.90;;;;;;5073183;28;20017;-54
2022/02/21 00:07:59;;;;;;;9.35;1.77;;;7.40;99.90;;;;;;5073436;28;20154;-54
2022/02/21 00:10:25;;;;;;;5.97;2.00;;;7.50;99.90;;;;;;5073444;28;20485;-54
2022/02/21 00:12:51;;;;;;;8.50;1.48;;;7.50;99.90;;;;;;5074181;28;20051;-54
2022/02/21 00:15:23;;;;;;;11.70;1.60;;;7.40;99.90;;;;;;5073047;28;20056;-55
2022/02/21 00:17:52;;;;;;;9.00;1.75;;;7.50;99.90;;;;;;5073209;28;20031;-54
2022/02/21 00:20:18;;;;;;;12.85;2.00;;;7.40;99.90;;;;;;5073451;28;20031;-55
2022/02/21 00:22:44;;;;;;;11.50;1.73;;;7.40;99.90;;;;;;5073851;28;20095;-55
2022/02/21 00:25:10;;;;;;;8.95;1.73;;;7.30;99.90;;;;;;5073653;28;20070;-54
2022/02/21 00:27:36;;;;;;;10.50;1.80;;;7.30;99.90;;;;;;5073284;28;20398;-55
2022/02/21 00:30:02;;;;;;;14.32;1.80;;;7.30;99.90;;;;;;5073199;28;20072;-54
2022/02/21 00:32:28;;;;;;;14.52;2.38;;;7.30;99.90;;;;;;5073229;28;20024;-54
2022/02/21 00:34:53;;;;;;;10.27;1.90;;;7.20;99.90;;;;;;5073358;28;20516;-55
2022/02/21 00:37:19;;;;;;;11.93;1.90;;;7.30;99.90;;;;;;5072901;28;20039;-54
2022/02/21 00:39:45;;;;;;;7.88;1.60;;;7.30;99.90;;;;;;5072812;28;20103;-54
2022/02/21 00:42:10;;;;;;;9.82;1.90;;;7.30;99.90;;;;;;5072703;28;20020;-54
2022/02/21 00:44:36;;;;;;;14.32;2.42;;;7.30;99.90;;;;;;5072963;28;20021;-54
2022/02/21 00:47:02;;;;;;;7.13;2.22;;;7.20;99.90;;;;;;5072460;28;20024;-54
2022/02/21 00:49:28;;;;;;;11.68;2.35;;;7.20;99.90;;;;;;5072215;28;20032;-54
2022/02/21 00:51:54;;;;;;;7.45;1.70;;;7.10;99.90;;;;;;5072982;28;20378;-54
2022/02/21 00:54:19;;;;;;;10.80;1.60;;;7.10;99.90;;;;;;5073420;28;20063;-54
2022/02/21 00:56:45;;;;;;;10.00;1.98;;;7.00;99.90;;;;;;5071303;28;20393;-54
2022/02/21 00:59:11;;;;;;;14.00;2.40;;;6.90;99.90;;;;;;5071595;28;20021;-54
2022/02/21 01:01:36;;;;;;;12.93;1.85;;;6.80;99.90;;;;;;5071285;28;20024;-53
2022/02/21 01:04:02;;;;;;;9.25;1.50;;;6.80;99.90;;;;;;5072348;28;20028;-54
2022/02/21 01:06:27;;;;;;;8.55;1.58;;;6.70;99.90;;;;;;5072437;28;20054;-54
2022/02/21 01:08:53;;;;;;;9.50;1.73;;;6.70;99.90;;;;;;5072082;28;20036;-54
2022/02/21 01:11:20;;;;;;;7.55;1.65;;;6.70;99.90;;;;;;5072277;28;20082;-54
2022/02/21 01:13:46;;;;;;;11.80;2.00;;;6.70;99.90;;;;;;5073012;28;20028;-54
2022/02/21 01:16:12;;;;;;;10.43;1.80;;;6.60;99.90;;;;;;5071739;28;20024;-55
2022/02/21 01:18:37;;;;;;;10.18;1.60;;;6.60;99.90;;;;;;5072016;28;20107;-54
2022/02/21 01:21:05;;;;;;;8.57;2.15;;;6.60;99.90;;;;;;5071978;28;20024;-54
2022/02/21 01:23:31;;;;;;;11.93;2.05;;;6.60;99.90;;;;;;5072858;28;20103;-55
2022/02/21 01:25:57;;;;;;;16.40;2.83;;;6.60;99.90;;;;;;5071312;28;20067;-54
2022/02/21 01:28:22;;;;;;;13.40;2.25;;;6.50;99.90;;;;;;5071459;28;20036;-54
2022/02/21 01:30:48;;;;;;;12.18;2.00;;;6.50;99.90;;;;;;5071721;28;20032;-54
2022/02/21 01:33:13;;;;;;;11.68;2.10;;;6.50;99.90;;;;;;5071435;28;20074;-54
2022/02/21 01:35:39;;;;;;;10.88;2.33;;;6.50;99.90;;;;;;5071243;28;20035;-54
2022/02/21 01:38:05;;;;;;;10.45;1.60;;;6.50;99.90;;;;;;5072547;28;20036;-54
2022/02/21 01:40:31;;;;;;;9.32;2.13;;;6.50;99.90;;;;;;5072286;28;20032;-54
2022/02/21 01:42:57;;;;;;;10.98;1.90;;;6.50;99.90;;;;;;5072332;28;20032;-54
2022/02/21 01:45:23;;;;;;;13.75;2.20;;;6.50;99.90;;;;;;5072756;28;20020;-54
2022/02/21 01:47:49;;;;;;;12.45;2.00;;;6.50;99.90;;;;;;5072451;28;20032;-54
2022/02/21 01:50:15;;;;;;;11.13;2.35;;;6.50;99.90;;;;;;5071433;28;20044;-54
2022/02/21 01:52:40;;;;;;;8.98;1.90;;;6.40;99.90;;;;;;5070936;28;20024;-54
2022/02/21 01:55:07;;;;;;;10.32;2.03;;;6.40;99.90;;;;;;5072131;28;20085;-53
2022/02/21 01:57:33;;;;;;;11.32;2.25;;;6.40;99.90;;;;;;5072351;28;20028;-54
2022/02/21 01:59:59;;;;;;;12.82;2.67;;;6.40;99.90;;;;;;5071967;28;22389;-54
2022/02/21 02:02:25;;;;;;;15.10;2.13;;;6.30;99.90;;;;;;5071202;28;20134;-54
2022/02/21 02:04:50;;;;;;;14.45;2.50;;;6.20;99.90;;;;;;5072278;28;20021;-54
2022/02/21 02:07:16;;;;;;;8.57;1.80;;;6.20;99.90;;;;;;5071172;28;20032;-54
2022/02/21 02:09:42;;;;;;;11.70;2.38;;;6.20;99.90;;;;;;5073579;28;20021;-53
2022/02/21 02:12:09;;;;;;;10.48;2.00;;;6.20;99.90;;;;;;5074420;28;20461;-55
2022/02/21 02:14:37;;;;;;;13.30;2.10;;;6.20;99.90;;;;;;5076393;28;20078;-54
2022/02/21 02:17:12;;;;;;;15.30;3.10;;;6.20;99.90;;;;;;5076352;28;20381;-54
2022/02/21 02:19:39;;;;;;;11.32;2.53;;;6.20;99.90;;;;;;5074525;28;20021;-53
2022/02/21 02:22:22;;;;;;;14.65;2.40;;;6.20;99.90;;;;;;5074991;28;20425;-53
2022/02/21 02:24:50;;;;;;;12.30;2.42;;;6.30;99.90;;;;;;5075303;28;20125;-54
2022/02/21 02:27:17;;;;;;;8.75;1.88;;;6.20;99.90;;;;;;5075691;28;20025;-55
2022/02/21 02:29:45;;;;;;;11.07;2.88;;;6.20;99.90;;;;;;5074902;28;20066;-54
2022/02/21 02:32:12;;;;;;;12.95;2.40;;;6.20;99.90;;;;;;5075434;28;20021;-54
2022/02/21 02:34:39;;;;;;;12.60;2.40;;;6.20;99.90;;;;;;5075925;28;20296;-54
2022/02/21 02:37:06;;;;;;;14.27;2.70;;;6.00;99.90;;;;;;5074618;28;20032;-55
2022/02/21 02:39:32;;;;;;;14.52;2.63;;;6.00;99.90;;;;;;5075413;28;20027;-54
2022/02/21 02:41:57;;;;;;;13.27;2.38;;;6.00;99.90;;;;;;5075585;28;20024;-54
2022/02/21 02:44:23;;;;;;;14.27;2.33;;;5.90;99.90;;;;;;5075882;28;20080;-54
2022/02/21 02:46:49;;;;;;;15.80;2.63;;;5.90;99.90;;;;;;5075871;28;20025;-54
2022/02/21 02:49:15;;;;;;;18.70;3.30;;;5.90;99.90;;;;;;5075734;28;20029;-54
2022/02/21 02:51:40;;;;;;;13.90;2.75;;;5.80;99.90;;;;;;5075812;28;20028;-54
2022/02/21 02:54:08;;;;;;;12.07;2.30;;;5.80;99.90;;;;;;5075189;28;20452;-54
2022/02/21 02:56:34;;;;;;;11.95;2.40;;;5.80;99.90;;;;;;5074863;28;20024;-54
2022/02/21 02:59:00;;;;;;;14.10;2.40;;;5.70;99.90;;;;;;5074305;28;20043;-54
2022/02/21 03:01:26;;;;;;;23.10;3.47;;;5.80;99.90;;;;;;5074336;28;20040;-54
2022/02/21 03:03:52;;;;;;;12.93;2.60;;;5.80;99.90;;;;;;5074928;28;20032;-54
2022/02/21 03:06:17;;;;;;;15.98;2.60;;;5.80;99.90;;;;;;5074942;28;20070;-54
2022/02/21 03:08:43;;;;;;;22.40;2.80;;;5.70;99.90;;;;;;5074630;28;20048;-54
2022/02/21 03:11:08;;;;;;;13.70;2.90;;;5.70;99.90;;;;;;5074423;28;20056;-54
2022/02/21 03:13:34;;;;;;;19.50;4.03;;;5.60;99.90;;;;;;5074871;28;20643;-54
2022/02/21 03:16:00;;;;;;;13.43;3.03;;;5.60;99.90;;;;;;5074642;28;20032;-55
2022/02/21 03:18:25;;;;;;;20.90;3.08;;;5.60;99.90;;;;;;5073524;28;20024;-56
2022/02/21 03:20:51;;;;;;;18.88;3.50;;;5.60;99.90;;;;;;5074073;28;20115;-55
2022/02/21 03:23:17;;;;;;;13.77;2.30;;;5.60;99.90;;;;;;5074111;28;20025;-54
2022/02/21 03:25:43;;;;;;;8.38;2.67;;;5.60;99.90;;;;;;5073845;28;20024;-54
2022/02/21 03:28:08;;;;;;;22.13;3.08;;;5.60;99.90;;;;;;5074205;28;20099;-55
2022/02/21 03:30:34;;;;;;;17.13;2.90;;;5.60;99.90;;;;;;5073889;28;20125;-54
2022/02/21 03:33:01;;;;;;;17.13;3.22;;;5.50;99.90;;;;;;5074252;28;20033;-55
2022/02/21 03:35:28;;;;;;;22.08;3.40;;;5.60;99.90;;;;;;5074288;28;20393;-55
2022/02/21 03:37:54;;;;;;;15.68;2.78;;;5.50;99.90;;;;;;5073593;28;20035;-55
2022/02/21 03:40:19;;;;;;;20.35;3.25;;;5.50;99.90;;;;;;5073848;28;20032;-55
2022/02/21 03:42:45;;;;;;;18.02;2.70;;;5.60;99.90;;;;;;5074330;28;20032;-55
2022/02/21 03:45:11;;;;;;;19.05;3.13;;;5.70;99.90;;;;;;5074506;28;20048;-55
2022/02/21 03:47:36;;;;;;;15.82;3.17;;;5.70;99.90;;;;;;5073940;28;20017;-55
2022/02/21 03:50:03;;;;;;;17.33;3.63;;;5.90;99.90;;;;;;5073945;28;20021;-55
2022/02/21 03:52:28;;;;;;;14.10;2.78;;;5.90;99.90;;;;;;5072380;28;20016;-54
2022/02/21 03:54:54;;;;;;;14.23;2.97;;;5.90;99.90;;;;;;5073396;28;20023;-55
2022/02/21 03:57:20;;;;;;;16.50;2.97;;;5.90;99.90;;;;;;5073091;28;20017;-54
2022/02/21 03:59:45;;;;;;;15.63;2.83;;;5.90;99.90;;;;;;5073201;28;20110;-55
2022/02/21 04:02:11;;;;;;;14.75;2.53;;;5.80;99.90;;;;;;5073681;28;20012;-55
2022/02/21 04:04:37;;;;;;;12.85;3.05;;;5.90;99.90;;;;;;5071073;28;20056;-55
2022/02/21 04:07:03;;;;;;;14.27;3.00;;;5.90;99.90;;;;;;5073217;28;20069;-55
2022/02/21 04:09:28;;;;;;;19.08;2.55;;;5.90;99.90;;;;;;5072535;28;20074;-55
2022/02/21 04:11:54;;;;;;;16.70;2.90;;;5.90;99.90;;;;;;5072604;28;20463;-55
2022/02/21 04:14:19;;;;;;;20.35;3.28;;;5.90;99.90;;;;;;5073479;28;20056;-54
2022/02/21 04:16:45;;;;;;;12.65;2.38;;;5.90;99.90;;;;;;5072863;28;20029;-55
2022/02/21 04:19:11;;;;;;;12.15;2.45;;;5.90;99.90;;;;;;5072659;28;20078;-55
2022/02/21 04:21:36;;;;;;;13.80;2.28;;;5.90;99.90;;;;;;5073098;28;20382;-55
2022/02/21 04:24:02;;;;;;;9.43;2.10;;;6.00;99.90;;;;;;5073066;28;20499;-55
2022/02/21 04:26:28;;;;;;;14.75;2.80;;;5.90;99.90;;;;;;5073027;28;20095;-54
2022/02/21 04:28:54;;;;;;;12.85;2.35;;;5.90;99.90;;;;;;5072787;28;20028;-55
2022/02/21 04:31:19;;;;;;;9.48;2.05;;;5.90;99.90;;;;;;5072500;28;20044;-55
2022/02/21 04:33:45;;;;;;;12.75;2.33;;;5.90;99.90;;;;;;5071754;28;20025;-55
2022/02/21 04:36:11;;;;;;;19.92;2.63;;;5.90;99.90;;;;;;5073454;28;20183;-54
2022/02/21 04:38:37;;;;;;;17.13;2.08;;;5.90;99.90;;;;;;5072765;28;20025;-55
2022/02/21 04:41:03;;;;;;;12.05;2.08;;;5.90;99.90;;;;;;5071725;28;20029;-54
2022/02/21 04:43:29;;;;;;;12.35;2.25;;;5.80;99.90;;;;;;5072199;28;20028;-55
2022/02/21 04:45:55;;;;;;;17.92;2.67;;;5.80;99.90;;;;;;5072459;28;20029;-55
2022/02/21 04:48:25;;;;;;;13.35;2.58;;;5.70;99.90;;;;;;5072424;28;20567;-55
2022/02/21 04:50:51;;;;;;;16.08;2.05;;;5.70;99.90;;;;;;5072094;28;20112;-55
2022/02/21 04:53:17;;;;;;;13.73;2.13;;;5.70;99.90;;;;;;5072208;28;20048;-55
2022/02/21 04:55:42;;;;;;;12.38;2.25;;;5.70;99.90;;;;;;5072825;28;20106;-55
2022/02/21 04:58:08;;;;;;;14.63;2.40;;;5.60;99.90;;;;;;5072130;28;20028;-55
2022/02/21 05:00:35;;;;;;;9.70;1.92;;;5.60;99.90;;;;;;5072318;28;20035;-55
2022/02/21 05:03:00;;;;;;;16.13;2.50;;;5.50;99.90;;;;;;5072295;28;20037;-55
2022/02/21 05:05:26;;;;;;;14.65;2.17;;;5.50;99.90;;;;;;5072264;28;20546;-55
2022/02/21 05:07:52;;;;;;;11.35;2.40;;;5.50;99.90;;;;;;5072220;28;20461;-55
2022/02/21 05:10:18;;;;;;;13.27;2.30;;;5.30;99.90;;;;;;5072349;28;20413;-55
2022/02/21 05:12:43;;;;;;;14.18;2.45;;;5.30;99.90;;;;;;5072169;28;20067;-55
2022/02/21 05:15:10;;;;;;;15.27;2.50;;;5.20;99.90;;;;;;5071386;28;20025;-56
2022/02/21 05:17:37;;;;;;;13.18;2.13;;;5.20;99.90;;;;;;5072625;28;20016;-55
2022/02/21 05:20:04;;;;;;;17.40;2.58;;;5.20;99.90;;;;;;5072216;28;20393;-55
2022/02/21 05:22:30;;;;;;;11.43;2.30;;;5.20;99.90;;;;;;5072143;28;20048;-55
2022/02/21 05:24:56;;;;;;;11.70;1.90;;;5.10;99.90;;;;;;5071844;28;20087;-55
2022/02/21 05:27:22;;;;;;;9.18;1.75;;;5.10;99.90;;;;;;5072310;28;20017;-55
2022/02/21 05:29:47;;;;;;;14.48;2.92;;;5.10;99.90;;;;;;5071976;28;20124;-54
2022/02/21 05:32:13;;;;;;;11.00;1.77;;;5.10;99.90;;;;;;5072178;28;20497;-54
2022/02/21 05:34:39;;;;;;;15.40;1.95;;;5.00;99.90;;;;;;5071845;28;20054;-53
2022/02/21 05:37:06;;;;;;;9.75;1.90;;;5.00;99.90;;;;;;5071393;28;20028;-54
2022/02/21 05:39:32;;;;;;;9.90;1.52;;;5.00;99.90;;;;;;5071553;28;20016;-54
2022/02/21 05:41:58;;;;;;;12.07;2.20;;;5.00;99.90;;;;;;5071837;28;20078;-55
2022/02/21 05:44:24;;;;;;;8.90;1.92;;;5.00;99.90;;;;;;5073812;28;20046;-55
2022/02/21 05:46:49;;;;;;;13.88;1.92;;;4.90;99.90;;;;;;5077821;28;20494;-54
2022/02/21 05:49:15;;;;;;;10.23;1.85;;;4.90;99.90;;;;;;5078781;28;20407;-54
2022/02/21 05:51:41;;;;;;;14.32;2.28;;;5.00;99.90;;;;;;5078729;28;20052;-55
2022/02/21 05:54:06;;;;;;;12.73;3.08;;;4.90;99.90;;;;;;5078481;28;20025;-54
2022/02/21 05:56:32;;;;;;;14.77;2.00;;;4.90;99.90;;;;;;5079044;28;20020;-55
2022/02/21 05:58:58;;;;;;;15.15;2.28;;;4.90;99.90;;;;;;5078930;28;20028;-54
2022/02/21 06:01:23;;;;;;;11.25;1.60;;;4.80;99.90;;;;;;5078694;28;20090;-54
2022/02/21 06:03:49;;;;;;;14.02;2.10;;;4.80;99.90;;;;;;5078607;28;20360;-55
2022/02/21 06:06:14;;;;;;;12.18;2.47;;;4.80;99.90;;;;;;5078975;28;20024;-54
2022/02/21 06:08:40;;;;;;;14.50;1.80;;;4.70;99.90;;;;;;5078322;28;20033;-54
2022/02/21 06:11:06;;;;;;;13.65;1.83;;;4.70;99.90;;;;;;5078635;28;20024;-55
2022/02/21 06:13:32;;;;;;;11.30;2.00;;;4.80;99.90;;;;;;5079484;28;20024;-54
2022/02/21 06:15:57;;;;;;;13.25;2.50;;;4.70;99.90;;;;;;5078527;28;20032;-54
2022/02/21 06:18:23;;;;;;;14.75;2.28;;;4.70;99.90;;;;;;5078105;28;20052;-54
2022/02/21 06:20:49;;;;;;;11.05;2.58;;;4.80;99.90;;;;;;5078631;28;20085;-54
2022/02/21 06:23:15;;;;;;;15.00;2.33;;;4.80;99.90;;;;;;5077788;28;20039;-55
2022/02/21 06:25:44;;;;;;;12.15;2.00;;;4.80;99.90;;;;;;5078323;28;20024;-54
2022/02/21 06:28:13;;;;;;;13.20;1.88;;;4.80;99.90;;;;;;5078875;28;20424;-54
2022/02/21 06:30:38;;;;;;;9.25;1.52;;;4.70;99.90;;;;;;5078021;28;20055;-54
2022/02/21 06:33:05;;;;;;;10.77;1.77;;;4.80;99.90;;;;;;5082922;28;20033;-54
2022/02/21 06:35:31;;;;;;;13.70;2.05;;;4.90;99.90;;;;;;5078402;28;20025;-55
2022/02/21 06:37:59;;;;;;;10.52;1.95;;;4.80;99.90;;;;;;5078391;28;20054;-55
2022/02/21 06:40:26;;;;;;;10.30;1.63;;;4.70;99.90;;;;;;5078640;28;20024;-54
2022/02/21 06:42:54;;;;;;;16.10;1.48;;;4.70;99.90;;;;;;5079266;28;20052;-55
2022/02/21 06:45:21;;;;;;;11.23;2.15;;;4.70;99.90;;;;;;5056033;28;20047;-54
2022/02/21 06:47:47;;;;;;;13.73;1.90;;;4.80;99.90;;;;;;5057393;28;20106;-55
2022/02/21 06:50:13;;;;;;;10.98;2.10;;;4.80;99.90;;;;;;5057332;28;20474;-55
2022/02/21 06:52:39;;;;;;;9.93;1.80;;;4.80;99.90;;;;;;5056743;28;20098;-54
2022/02/21 06:55:05;;;;;;;10.32;2.10;;;4.80;99.90;;;;;;5052528;28;20031;-55
2022/02/21 06:57:32;;;;;;;9.60;1.83;;;4.90;99.90;;;;;;5050698;28;20032;-55
2022/02/21 06:59:57;;;;;;;11.23;2.25;;;4.80;99.90;;;;;;5051565;28;20029;-54
2022/02/21 07:02:23;;;;;;;16.38;2.25;;;4.90;99.90;;;;;;5039607;28;20508;-55
2022/02/21 07:04:48;;;;;;;9.15;1.90;;;4.90;99.90;;;;;;5052831;28;20074;-55
2022/02/21 07:07:14;;;;;;;11.80;2.30;;;4.90;99.90;;;;;;5050638;28;20017;-55
2022/02/21 07:09:40;;;;;;;13.30;2.05;;;4.90;99.90;;;;;;5054460;28;20031;-54
2022/02/21 07:12:07;;;;;;;14.82;2.15;;;5.00;99.90;;;;;;5049891;28;20914;-55
2022/02/21 07:14:32;;;;;;;13.77;1.83;;;5.00;99.90;;;;;;5055459;28;20394;-55
2022/02/21 07:16:58;;;;;;;12.73;2.00;;;5.10;99.90;;;;;;5050886;28;20032;-55
2022/02/21 07:19:24;;;;;;;7.90;1.67;;;5.10;99.90;;;;;;5048665;28;20471;-56
2022/02/21 07:21:49;;;;;;;14.75;2.03;;;5.20;99.90;;;;;;5050802;28;20543;-55
2022/02/21 07:24:15;;;;;;;11.85;2.00;;;5.30;99.90;;;;;;5048291;28;20058;-54
2022/02/21 07:26:41;;;;;;;11.30;2.03;;;5.40;99.90;;;;;;5048810;28;20082;-55
2022/02/21 07:29:08;;;;;;;11.02;2.10;;;5.40;99.90;;;;;;5046615;28;20029;-54
2022/02/21 07:31:33;;;;;;;19.00;2.42;;;5.50;99.90;;;;;;5051547;28;20056;-55
2022/02/21 07:34:02;;;;;;;14.48;2.30;;;5.60;99.90;;;;;;5048492;28;20032;-56
2022/02/21 07:36:28;;;;;;;12.45;2.67;;;5.70;99.90;;;;;;5046326;28;20582;-56
2022/02/21 07:38:54;;;;;;;15.05;2.20;;;5.70;99.90;;;;;;5045344;28;20048;-55
2022/02/21 07:41:20;;;;;;;13.80;2.38;;;5.70;99.90;;;;;;5051537;28;20029;-55
2022/02/21 07:43:45;;;;;;;14.63;2.75;;;5.70;99.90;;;;;;5043116;28;20646;-55
2022/02/21 07:46:11;;;;;;;14.95;2.78;;;5.80;99.90;;;;;;5040025;28;20033;-55
2022/02/21 07:48:37;;;;;;;12.90;2.28;;;5.90;99.90;;;;;;5041244;28;20055;-55
2022/02/21 07:51:03;;;;;;;11.10;1.50;;;5.90;99.90;;;;;;5037139;28;20494;-55
2022/02/21 07:53:29;;;;;;;14.63;2.08;;;6.00;99.90;;;;;;5039152;28;20040;-55
2022/02/21 07:55:55;;;;;;;13.38;3.28;;;6.00;99.90;;;;;;5039696;28;20338;-55
2022/02/21 07:58:20;;;;;;;13.88;2.60;;;6.00;99.90;;;;;;5041346;28;20068;-55
2022/02/21 08:00:46;;;;;;;12.60;2.72;;;6.00;99.90;;;;;;5037451;28;20028;-55
2022/02/21 08:03:12;;;;;;;17.25;3.38;;;6.00;99.90;;;;;;5038241;28;20022;-55
2022/02/21 08:05:38;;;;;;;15.23;2.83;;;6.00;99.90;;;;;;5037477;28;20113;-55
2022/02/21 08:08:05;;;;;;;20.38;3.08;;;6.10;99.90;;;;;;5039661;28;20036;-55
2022/02/21 08:10:31;;;;;;;15.60;2.00;;;6.10;99.90;;;;;;5042647;28;20033;-55
2022/02/21 08:12:57;;;;;;;15.73;2.35;;;6.10;99.90;;;;;;5039923;28;20525;-56
2022/02/21 08:15:22;;;;;;;16.95;3.10;;;6.20;99.90;;;;;;5042911;28;20520;-56
2022/02/21 08:17:48;;;;;;;19.90;3.53;;;6.30;99.90;;;;;;5044154;28;20116;-55
2022/02/21 08:20:16;;;;;;;19.10;2.75;;;6.40;99.90;;;;;;5045553;28;20024;-56
2022/02/21 08:22:43;;;;;;;17.00;2.78;;;6.40;99.90;;;;;;5044526;28;20100;-55
2022/02/21 08:25:09;;;;;;;15.13;2.75;;;6.50;99.90;;;;;;5042771;28;20025;-55
2022/02/21 08:27:39;;;;;;;22.35;2.90;;;6.50;99.90;;;;;;5046232;28;20025;-55
2022/02/21 08:30:07;;;;;;;12.50;2.08;;;6.60;99.90;;;;;;5041061;28;20148;-56
2022/02/21 08:32:33;;;;;;;16.40;2.63;;;6.60;99.90;;;;;;5043807;28;20032;-55
2022/02/21 08:34:58;;;;;;;20.27;3.33;;;6.60;99.90;;;;;;5047485;28;20025;-56
2022/02/21 08:37:24;;;;;;;13.20;2.80;;;6.60;99.90;;;;;;5043640;28;20017;-55
2022/02/21 08:39:49;;;;;;;23.95;3.33;;;6.60;99.90;;;;;;5037085;28;20040;-55
2022/02/21 08:42:15;;;;;;;16.27;3.40;;;6.60;99.90;;;;;;5040471;28;20051;-56
2022/02/21 08:44:41;;;;;;;17.75;3.08;;;6.50;99.90;;;;;;5040097;28;20033;-56
2022/02/21 08:47:06;;;;;;;22.42;3.25;;;6.40;99.90;;;;;;5043707;28;20049;-56
2022/02/21 08:49:32;;;;;;;15.38;3.00;;;6.30;99.90;;;;;;5040838;28;20025;-56
2022/02/21 08:51:58;;;;;;;25.15;4.15;;;6.30;99.90;;;;;;5041375;28;20052;-55
2022/02/21 08:54:23;;;;;;;18.33;2.58;;;6.30;99.90;;;;;;5041420;28;20024;-55
2022/02/21 08:56:49;;;;;;;19.30;3.00;;;6.30;99.90;;;;;;5037907;28;20735;-55
2022/02/21 08:59:16;;;;;;;21.55;3.03;;;6.30;99.90;;;;;;5045044;28;20032;-55
2022/02/21 09:01:44;;;;;;;24.38;3.35;;;6.40;99.90;;;;;;5042440;28;20017;-55
2022/02/21 09:04:10;;;;;;;17.30;3.67;;;6.40;99.90;;;;;;5045463;28;20032;-55
2022/02/21 09:06:36;;;;;;;17.73;4.03;;;6.50;99.90;;;;;;5044592;28;20114;-56
2022/02/21 09:09:02;;;;;;;30.13;4.28;;;6.60;99.90;;;;;;5045380;28;20149;-55
2022/02/21 09:11:28;;;;;;;18.35;3.17;;;6.60;99.90;;;;;;5037618;28;20029;-55
2022/02/21 09:13:54;;;;;;;29.52;3.05;;;6.80;99.90;;;;;;5036750;28;20041;-56
2022/02/21 09:16:20;;;;;;;14.30;2.17;;;6.90;99.90;;;;;;5038364;28;20040;-55
2022/02/21 09:18:45;;;;;;;21.42;3.70;;;7.10;99.90;;;;;;5043437;28;20048;-55
2022/02/21 09:21:11;;;;;;;23.70;4.45;;;7.10;99.90;;;;;;5044201;28;20528;-55
2022/02/21 09:23:37;;;;;;;25.55;3.83;;;7.20;99.90;;;;;;5040873;28;20033;-55
2022/02/21 09:26:02;;;;;;;26.92;4.22;;;7.20;99.90;;;;;;5048370;28;20029;-55
2022/02/21 09:28:28;;;;;;;20.02;3.95;;;7.20;99.90;;;;;;5046224;28;20025;-55
2022/02/21 09:30:55;;;;;;;25.50;3.67;;;7.40;99.90;;;;;;5038879;28;20135;-54
2022/02/21 09:33:22;;;;;;;20.45;3.90;;;7.40;99.90;;;;;;5044045;28;20505;-55
2022/02/21 09:35:49;;;;;;;21.83;3.63;;;7.30;99.90;;;;;;5047674;28;20021;-55
2022/02/21 09:38:14;;;;;;;20.48;3.67;;;7.30;99.90;;;;;;5048593;28;20032;-55
2022/02/21 09:40:41;;;;;;;24.23;4.93;;;7.30;99.90;;;;;;5045599;28;20037;-55
2022/02/21 09:43:08;;;;;;;25.42;4.38;;;7.40;99.90;;;;;;5039784;28;20554;-55
2022/02/21 09:45:35;;;;;;;27.35;5.03;;;7.40;99.90;;;;;;5042586;28;20051;-55
2022/02/21 09:48:02;;;;;;;22.25;4.47;;;7.50;99.90;;;;;;5047976;28;20023;-55
2022/02/21 09:50:27;;;;;;;24.40;4.43;;;7.50;99.90;;;;;;5044497;28;20036;-55
2022/02/21 09:53:00;;;;;;;25.80;4.50;;;7.50;99.90;;;;;;5049524;28;20016;-55
2022/02/21 09:55:26;;;;;;;20.58;4.00;;;7.50;99.90;;;;;;5048125;28;20028;-55
2022/02/21 09:57:52;;;;;;;24.48;4.32;;;7.60;99.90;;;;;;5048777;28;20029;-55
2022/02/21 10:00:18;;;;;;;28.85;4.50;;;7.60;99.90;;;;;;5045398;28;20060;-55
2022/02/21 10:02:47;;;;;;;23.83;4.00;;;7.50;99.90;;;;;;5041141;28;20075;-54
2022/02/21 10:05:25;;;;;;;31.05;4.68;;;7.60;99.90;;;;;;5043268;28;20017;-54
2022/02/21 10:07:52;;;;;;;26.75;5.18;;;7.70;99.90;;;;;;5046314;28;20064;-55
2022/02/21 10:10:20;;;;;;;28.67;4.88;;;7.80;99.90;;;;;;5044933;28;20047;-55
2022/02/21 10:12:58;;;;;;;27.13;4.93;;;7.90;99.90;;;;;;5045976;28;20079;-55
2022/02/21 10:15:27;;;;;;;25.90;4.15;;;8.00;99.90;;;;;;5042096;28;20174;-54
2022/02/21 10:18:14;;;;;;;22.08;4.70;;;8.00;99.90;;;;;;5044771;28;20107;-54
2022/02/21 10:20:54;;;;;;;17.42;3.05;;;8.40;99.90;;;;;;5042089;28;20108;-55
2022/02/21 10:23:19;;;;;;;26.40;5.07;;;8.70;99.90;;;;;;5043716;28;20025;-55
2022/02/21 10:25:59;;;;;;;25.77;4.03;;;8.80;99.90;;;;;;5043986;28;20040;-54
2022/02/21 10:28:38;;;;;;;27.67;5.63;;;9.00;99.90;;;;;;5044934;28;20032;-55
2022/02/21 10:31:15;;;;;;;20.77;4.18;;;9.30;99.90;;;;;;5045971;28;20057;-55
2022/02/21 10:34:08;;;;;;;19.88;4.05;;;9.10;99.90;;;;;;5047093;28;20037;-54
2022/02/21 10:36:45;;;;;;;37.33;5.45;;;8.60;99.90;;;;;;5050554;28;20537;-56
2022/02/21 10:39:17;;;;;;;32.22;4.90;;;8.30;99.90;;;;;;5051128;28;20750;-55
2022/02/21 10:41:57;;;;;;;18.55;3.55;;;8.10;99.90;;;;;;5054047;28;20502;-56
2022/02/21 10:44:41;;;;;;;30.58;6.30;;;7.80;99.90;;;;;;5049735;28;20037;-54
2022/02/21 10:47:10;;;;;;;23.42;4.45;;;7.60;99.90;;;;;;5049122;28;20721;-56
2022/02/21 10:49:40;;;;;;;30.40;5.15;;;7.50;99.90;;;;;;5053248;28;20030;-54
2022/02/21 10:52:12;;;;;;;27.25;4.72;;;7.40;99.90;;;;;;5044199;28;20059;-54
2022/02/21 10:54:38;;;;;;;39.08;5.80;;;7.30;99.90;;;;;;5048029;28;20426;-57
2022/02/21 10:57:08;;;;;;;26.70;5.13;;;7.20;99.90;;;;;;5050030;28;20086;-59
2022/02/21 10:59:34;;;;;;;31.15;5.38;;;7.20;99.90;;;;;;5043392;28;20429;-61
2022/02/21 11:02:02;;;;;;;29.13;5.85;;;7.10;99.90;;;;;;5043649;28;20029;-61
2022/02/21 11:04:29;;;;;;;34.22;5.85;;;7.10;99.90;;;;;;5042070;28;20017;-60
2022/02/21 11:06:55;;;;;;;34.80;5.60;;;7.10;99.90;;;;;;5047065;28;20486;-60
2022/02/21 11:09:25;;;;;;;39.80;5.95;;;7.00;99.90;;;;;;5045685;28;20547;-61
2022/02/21 11:11:51;;;;;;;40.17;5.97;;;6.90;99.90;;;;;;5041426;28;20025;-63
2022/02/21 11:14:19;;;;;;;35.80;5.95;;;6.90;99.90;;;;;;5039309;28;20033;-61
2022/02/21 11:16:49;;;;;;;40.38;6.35;;;6.90;99.90;;;;;;5040399;28;20302;-60
2022/02/21 11:19:16;;;;;;;33.03;5.80;;;6.90;99.90;;;;;;5043493;28;20033;-61
2022/02/21 11:21:47;;;;;;;34.97;6.72;;;6.90;99.90;;;;;;5042100;28;20508;-61
2022/02/21 11:24:18;;;;;;;40.65;6.20;;;7.00;99.90;;;;;;5040271;28;20025;-60
2022/02/21 11:26:59;;;;;;;33.67;6.43;;;7.00;99.90;;;;;;5048490;28;20027;-60
2022/02/21 11:29:31;;;;;;;37.67;6.32;;;7.10;99.90;;;;;;5046605;28;20110;-60
2022/02/21 11:31:58;;;;;;;42.70;7.75;;;7.20;99.90;;;;;;5047574;28;20056;-60
2022/02/21 11:34:24;;;;;;;45.03;6.20;;;7.20;99.90;;;;;;5047016;28;20047;-61
2022/02/21 11:36:57;;;;;;;38.50;5.90;;;7.30;99.90;;;;;;5044264;28;20094;-60
2022/02/21 11:39:28;;;;;;;40.95;6.57;;;7.40;99.90;;;;;;5047992;28;20087;-59
2022/02/21 11:42:06;;;;;;;32.53;5.22;;;7.50;99.90;;;;;;5046522;28;20029;-60
2022/02/21 11:44:50;;;;;;;40.63;6.70;;;7.50;99.90;;;;;;5046093;28;20027;-59
2022/02/21 11:47:38;;;;;;;39.30;6.85;;;7.50;99.90;;;;;;5051128;28;20104;-60
2022/02/21 11:50:19;;;;;;;43.85;6.97;;;7.50;99.90;;;;;;5051885;28;20021;-59
2022/02/21 11:52:50;;;;;;;42.22;7.30;;;7.60;99.90;;;;;;5048600;28;20233;-58
2022/02/21 11:55:38;;;;;;;39.47;8.18;;;7.60;99.90;;;;;;5050703;28;20025;-62
2022/02/21 11:58:13;;;;;;;49.03;7.07;;;7.60;99.90;;;;;;5053076;28;20082;-62
2022/02/21 12:00:41;;;;;;;35.08;5.93;;;7.60;99.90;;;;;;5057328;28;20033;-60
2022/02/21 12:03:19;;;;;;;39.25;7.30;;;7.70;99.90;;;;;;5056763;28;20060;-62
2022/02/21 12:05:48;;;;;;;31.88;6.72;;;7.80;99.90;;;;;;5053919;28;20056;-60
2022/02/21 12:08:20;;;;;;;33.60;5.85;;;7.90;99.90;;;;;;5048621;28;20017;-61
2022/02/21 12:11:03;;;;;;;31.00;5.82;;;7.90;99.90;;;;;;5043257;28;20035;-58
2022/02/21 12:13:34;;;;;;;36.75;5.88;;;8.00;99.90;;;;;;5041293;28;20055;-56
2022/02/21 12:16:08;;;;;;;39.03;7.10;;;8.10;99.90;;;;;;5041114;28;20754;-56
2022/02/21 12:18:45;;;;;;;34.55;5.88;;;8.20;99.90;;;;;;5042075;28;20067;-57
2022/02/21 12:21:22;;;;;;;25.70;4.50;;;8.20;99.90;;;;;;5042241;28;20332;-56
2022/02/21 12:24:00;;;;;;;28.48;5.13;;;8.30;99.90;;;;;;5043052;28;20112;-57
2022/02/21 12:26:37;;;;;;;20.35;4.03;;;8.40;99.90;;;;;;5045341;28;20051;-57
2022/02/21 12:29:24;;;;;;;27.15;5.55;;;8.40;99.90;;;;;;5040029;28;20466;-57
2022/02/21 12:32:05;;;;;;;24.08;4.97;;;8.30;99.90;;;;;;5044316;28;20044;-56
2022/02/21 12:34:33;;;;;;;28.38;4.70;;;8.20;99.90;;;;;;5041899;28;20115;-57
2022/02/21 12:37:10;;;;;;;25.58;4.60;;;8.20;99.90;;;;;;5042199;28;20348;-58
2022/02/21 12:39:41;;;;;;;20.50;4.20;;;8.00;99.90;;;;;;5043008;28;20537;-57
2022/02/21 12:42:07;;;;;;;31.50;4.65;;;8.00;99.90;;;;;;5042877;28;20083;-57
2022/02/21 12:44:33;;;;;;;25.10;3.63;;;8.10;99.90;;;;;;5040190;28;20052;-57
2022/02/21 12:47:05;;;;;;;26.85;4.95;;;8.20;99.90;;;;;;5042604;28;20488;-57
2022/02/21 12:49:42;;;;;;;22.60;5.03;;;8.30;99.90;;;;;;5040215;28;20021;-57